createdAt,value
2022-08-12T00:00:50.153Z,58.86
2022-08-12T00:03:20.554Z,58.74
2022-08-12T00:06:04.200Z,58.34
2022-08-12T00:08:09.276Z,58.16
2022-08-12T00:10:35.754Z,58.37
2022-08-12T00:13:02.104Z,58.34
2022-08-12T00:15:28.515Z,58.30
2022-08-12T00:17:54.893Z,58.27
2022-08-12T00:20:21.273Z,58.41
2022-08-12T00:22:53.050Z,58.83
2022-08-12T00:25:14.040Z,59.00
2022-08-12T00:27:43.991Z,59.16
2022-08-12T00:30:06.816Z,59.13
2022-08-12T00:32:54.831Z,58.93
2022-08-12T00:34:59.666Z,58.99
2022-08-12T00:37:26.093Z,58.61
2022-08-12T00:39:52.509Z,58.60
2022-08-12T00:42:18.838Z,58.97
2022-08-12T00:44:45.297Z,59.58
2022-08-12T00:47:24.167Z,59.83
2022-08-12T00:49:38.061Z,60.10
2022-08-12T00:52:04.464Z,60.07
2022-08-12T00:54:30.834Z,60.03
2022-08-12T00:56:57.195Z,60.31
2022-08-12T00:59:23.581Z,60.01
2022-08-12T01:02:02.152Z,59.58
2022-08-12T01:04:16.324Z,59.24
2022-08-12T01:06:42.700Z,59.16
2022-08-12T01:09:09.065Z,59.39
2022-08-12T01:11:35.427Z,59.93
2022-08-12T01:14:01.793Z,60.30
2022-08-12T01:16:28.208Z,60.51
2022-08-12T01:18:54.593Z,60.56
2022-08-12T01:21:20.970Z,60.92
2022-08-12T01:23:47.405Z,60.99
2022-08-12T01:26:13.765Z,61.27
2022-08-12T01:28:40.139Z,61.45
2022-08-12T01:31:06.631Z,61.43
2022-08-12T01:33:32.962Z,61.62
2022-08-12T01:36:07.814Z,61.70
2022-08-12T01:38:29.930Z,61.86
2022-08-12T01:40:52.172Z,61.83
2022-08-12T01:43:18.508Z,61.95
2022-08-12T01:45:44.998Z,61.93
2022-08-12T01:48:11.360Z,61.77
2022-08-12T01:50:37.742Z,61.78
2022-08-12T01:53:04.105Z,61.81
2022-08-12T01:55:30.520Z,61.76
2022-08-12T01:57:58.638Z,61.88
2022-08-12T02:00:35.744Z,61.50
2022-08-12T02:02:49.631Z,60.63
2022-08-12T02:05:15.987Z,60.21
2022-08-12T02:07:42.354Z,59.91
2022-08-12T02:10:08.807Z,59.53
2022-08-12T02:12:35.232Z,59.47
2022-08-12T02:15:01.576Z,58.79
2022-08-12T02:17:55.637Z,58.20
2022-08-12T02:19:54.344Z,57.82
2022-08-12T02:22:20.710Z,57.22
2022-08-12T02:24:47.106Z,57.55
2022-08-12T02:27:13.540Z,57.75
2022-08-12T02:29:39.897Z,57.95
2022-08-12T02:32:06.301Z,58.07
2022-08-12T02:34:32.696Z,58.05
2022-08-12T02:37:02.512Z,58.22
2022-08-12T02:39:25.467Z,58.31
2022-08-12T02:41:51.832Z,58.26
2022-08-12T02:44:18.262Z,58.42
2022-08-12T02:46:44.700Z,58.50
2022-08-12T02:49:12.575Z,58.52
2022-08-12T02:51:37.428Z,58.47
2022-08-12T02:54:05.457Z,58.56
2022-08-12T02:56:30.182Z,58.36
2022-08-12T02:58:56.562Z,58.34
2022-08-12T03:01:22.983Z,58.31
2022-08-12T03:03:49.417Z,58.29
2022-08-12T03:06:15.805Z,58.27
2022-08-12T03:08:42.186Z,58.15
2022-08-12T03:11:12.163Z,58.08
2022-08-12T03:13:35.018Z,58.18
2022-08-12T03:16:01.382Z,58.14
2022-08-12T03:18:28.966Z,58.01
2022-08-12T03:20:54.245Z,58.10
2022-08-12T03:23:30.033Z,58.06
2022-08-12T03:25:47.044Z,58.38
2022-08-12T03:28:23.917Z,58.54
2022-08-12T03:30:39.875Z,58.79
2022-08-12T03:33:06.309Z,59.19
2022-08-12T03:35:40.657Z,59.25
2022-08-12T03:37:59.054Z,59.73
2022-08-12T03:40:25.497Z,59.97
2022-08-12T03:42:51.866Z,60.31
2022-08-12T03:45:18.260Z,60.73
2022-08-12T03:47:44.621Z,60.79
2022-08-12T03:50:10.989Z,61.32
2022-08-12T03:52:37.357Z,61.90
2022-08-12T03:55:03.715Z,62.08
2022-08-12T03:57:30.100Z,62.34
2022-08-12T03:59:56.558Z,62.35
2022-08-12T04:02:22.946Z,62.65
2022-08-12T04:04:49.634Z,62.90
2022-08-12T04:07:15.756Z,63.21
2022-08-12T04:09:42.188Z,63.26
2022-08-12T04:12:08.568Z,63.57
2022-08-12T04:14:35.047Z,64.02
2022-08-12T04:17:01.411Z,64.26
2022-08-12T04:19:27.770Z,64.42
2022-08-12T04:22:02.457Z,64.87
2022-08-12T04:24:20.551Z,65.21
2022-08-12T04:26:46.954Z,65.47
2022-08-12T04:29:13.332Z,65.63
2022-08-12T04:31:39.733Z,66.22
2022-08-12T04:34:06.213Z,66.54
2022-08-12T04:36:32.645Z,67.00
2022-08-12T04:38:59.793Z,67.25
2022-08-12T04:41:25.386Z,67.47
2022-08-12T04:44:00.813Z,67.99
2022-08-12T04:46:22.580Z,68.09
2022-08-12T04:48:44.510Z,68.47
2022-08-12T04:51:13.611Z,68.92
2022-08-12T04:53:37.377Z,69.32
2022-08-12T04:56:03.906Z,69.57
2022-08-12T04:58:30.283Z,69.88
2022-08-12T05:00:56.670Z,70.42
2022-08-12T05:03:23.067Z,70.98
2022-08-12T05:05:49.548Z,71.18
2022-08-12T05:08:15.925Z,70.99
2022-08-12T05:10:42.396Z,71.13
2022-08-12T05:13:08.775Z,71.52
2022-08-12T05:15:36.082Z,71.87
2022-08-12T05:18:02.210Z,71.85
2022-08-12T05:20:28.040Z,72.00
2022-08-12T05:22:57.393Z,72.24
2022-08-12T05:25:21.106Z,72.32
2022-08-12T05:27:58.455Z,72.79
2022-08-12T05:30:13.688Z,72.50
2022-08-12T05:32:40.159Z,72.79
2022-08-12T05:35:06.908Z,71.92
2022-08-12T05:37:32.820Z,72.35
2022-08-12T05:39:59.866Z,72.60
2022-08-12T05:42:33.740Z,72.63
2022-08-12T05:44:52.038Z,73.05
2022-08-12T05:47:18.439Z,73.09
2022-08-12T05:49:44.807Z,73.34
2022-08-12T05:52:11.170Z,73.74
2022-08-12T05:54:56.634Z,73.82
2022-08-12T05:57:04.018Z,73.89
2022-08-12T05:59:30.413Z,73.95
2022-08-12T06:02:08.880Z,73.85
2022-08-12T06:04:23.215Z,73.61
2022-08-12T06:06:49.640Z,72.85
2022-08-12T06:09:15.997Z,72.42
2022-08-12T06:11:54.038Z,72.08
2022-08-12T06:14:11.858Z,71.98
2022-08-12T06:16:35.379Z,71.39
2022-08-12T06:19:01.768Z,70.59
2022-08-12T06:21:28.146Z,69.71
2022-08-12T06:23:54.518Z,69.28
2022-08-12T06:26:20.870Z,68.53
2022-08-12T06:28:47.337Z,68.77
2022-08-12T06:31:28.988Z,68.45
2022-08-12T06:33:55.298Z,67.97
2022-08-12T06:36:06.537Z,66.95
2022-08-12T06:38:33.102Z,66.74
2022-08-12T06:40:59.479Z,66.07
2022-08-12T06:43:25.846Z,66.47
2022-08-12T06:45:52.267Z,66.52
2022-08-12T06:48:18.699Z,65.97
2022-08-12T06:50:45.175Z,65.95
2022-08-12T06:53:11.599Z,66.37
2022-08-12T06:55:37.904Z,66.35
2022-08-12T06:58:10.004Z,66.14
2022-08-12T07:00:32.480Z,65.99
2022-08-12T07:05:23.320Z,65.75
2022-08-12T07:07:49.700Z,65.52
2022-08-12T07:10:16.086Z,64.59
2022-08-12T07:12:42.710Z,64.50
2022-08-12T07:15:08.870Z,64.27
2022-08-12T07:17:35.247Z,63.82
2022-08-12T07:20:04.497Z,63.02
2022-08-12T07:22:27.994Z,62.99
2022-08-12T07:24:54.354Z,63.24
2022-08-12T07:27:20.724Z,63.53
2022-08-12T07:29:58.160Z,62.98
2022-08-12T07:32:13.714Z,62.77
2022-08-12T07:34:40.228Z,61.74
2022-08-12T07:37:06.574Z,61.64
2022-08-12T07:39:32.988Z,60.88
2022-08-12T07:41:59.361Z,59.58
2022-08-12T07:44:26.062Z,58.04
2022-08-12T07:46:52.479Z,57.23
2022-08-12T07:49:18.881Z,55.90
2022-08-12T07:51:45.244Z,54.64
2022-08-12T07:54:11.680Z,53.29
2022-08-12T07:56:38.053Z,52.77
2022-08-12T07:59:04.437Z,53.17
2022-08-12T08:01:30.828Z,53.05
2022-08-12T08:03:57.227Z,53.44
2022-08-12T08:06:23.616Z,52.72
2022-08-12T08:08:50.015Z,53.40
2022-08-12T08:11:16.379Z,52.49
2022-08-12T08:13:42.771Z,52.02
2022-08-12T08:16:09.134Z,51.56
2022-08-12T08:18:35.594Z,51.31
2022-08-12T08:21:02.002Z,50.86
2022-08-12T08:23:34.972Z,50.77
2022-08-12T08:25:54.793Z,50.92
2022-08-12T08:28:21.153Z,50.44
2022-08-12T08:30:47.558Z,50.65
2022-08-12T08:33:20.113Z,49.88
2022-08-12T08:35:47.117Z,49.93
2022-08-12T08:38:06.751Z,49.01
2022-08-12T08:40:33.147Z,48.91
2022-08-12T08:42:59.523Z,49.02
2022-08-12T08:45:25.911Z,48.47
2022-08-12T08:47:52.273Z,48.67
2022-08-12T08:50:18.756Z,48.82
2022-08-12T08:52:45.042Z,48.51
2022-08-12T08:55:11.486Z,48.71
2022-08-12T08:57:43.440Z,48.24
2022-08-12T09:00:04.352Z,46.53
2022-08-12T09:02:30.722Z,45.89
2022-08-12T09:05:11.866Z,45.09
2022-08-12T09:07:51.786Z,45.15
2022-08-12T09:10:02.546Z,45.33
2022-08-12T09:12:16.385Z,44.47
2022-08-12T09:14:42.885Z,43.99
2022-08-12T09:17:09.280Z,43.71
2022-08-12T09:19:35.705Z,43.23
2022-08-12T09:22:02.092Z,42.62
2022-08-12T09:24:28.514Z,42.43
2022-08-12T09:26:54.905Z,42.07
2022-08-12T09:30:11.012Z,42.04
2022-08-12T09:32:03.373Z,42.58
2022-08-12T09:34:28.681Z,41.83
2022-08-12T09:36:58.041Z,40.89
2022-08-12T09:40:02.543Z,40.82
2022-08-12T09:42:32.892Z,41.54
2022-08-12T09:44:01.007Z,41.76
2022-08-12T09:46:26.211Z,41.93
2022-08-12T09:48:56.424Z,40.71
2022-08-12T09:51:22.353Z,40.77
2022-08-12T09:53:45.800Z,41.34
2022-08-12T09:56:57.945Z,42.20
2022-08-12T09:58:57.694Z,42.77
2022-08-12T10:01:06.578Z,43.14
2022-08-12T10:03:31.856Z,43.20
2022-08-12T10:06:26.983Z,42.61
2022-08-12T10:08:23.642Z,42.42
2022-08-12T10:10:50.006Z,42.16
2022-08-12T10:13:33.840Z,41.92
2022-08-12T10:16:00.723Z,42.34
2022-08-12T10:18:09.173Z,42.52
2022-08-12T10:20:35.508Z,42.28
2022-08-12T10:23:02.000Z,41.44
2022-08-12T10:26:18.587Z,41.01
2022-08-12T10:28:03.988Z,41.34
2022-08-12T10:30:40.629Z,41.56
2022-08-12T10:32:56.629Z,41.62
2022-08-12T10:35:13.841Z,41.78
2022-08-12T10:38:39.284Z,41.70
2022-08-12T10:40:11.528Z,41.75
2022-08-12T10:42:32.990Z,41.77
2022-08-12T10:44:59.445Z,42.45
2022-08-12T10:48:07.359Z,42.52
2022-08-12T10:50:03.009Z,42.49
2022-08-12T10:52:34.223Z,42.56
2022-08-12T10:54:45.068Z,41.38
2022-08-12T10:57:17.950Z,41.15
2022-08-12T11:00:29.457Z,42.02
2022-08-12T11:04:22.495Z,42.71
2022-08-12T11:04:41.475Z,42.56
2022-08-12T11:07:10.114Z,43.03
2022-08-12T11:09:55.688Z,42.84
2022-08-12T11:12:35.472Z,43.24
2022-08-12T11:14:49.336Z,42.63
2022-08-12T11:16:42.502Z,42.23
2022-08-12T11:19:08.897Z,41.97
2022-08-12T11:21:57.596Z,42.18
2022-08-12T11:24:01.932Z,42.18
2022-08-12T11:26:28.015Z,42.80
2022-08-12T11:29:05.400Z,43.54
2022-08-12T11:31:20.762Z,44.58
2022-08-12T11:34:04.503Z,44.82
2022-08-12T11:36:16.571Z,43.96
2022-08-12T11:38:43.078Z,43.36
2022-08-12T11:41:09.469Z,43.42
2022-08-12T11:43:50.588Z,43.75
2022-08-12T11:46:02.376Z,44.17
2022-08-12T11:48:28.811Z,45.22
2022-08-12T11:50:55.180Z,46.12
2022-08-12T11:53:57.522Z,45.88
2022-08-12T11:55:47.939Z,45.66
2022-08-12T11:59:31.368Z,46.64
2022-08-12T12:03:07.144Z,46.54
2022-08-12T12:05:41.738Z,46.25
2022-08-12T12:08:38.016Z,44.81
2022-08-12T12:10:26.304Z,46.06
2022-08-12T12:12:52.664Z,47.30
2022-08-12T12:15:25.350Z,52.17
2022-08-12T12:17:45.418Z,48.87
2022-08-12T12:20:12.396Z,51.27
2022-08-12T12:22:38.276Z,51.77
2022-08-12T12:25:13.193Z,50.74
2022-08-12T12:28:03.750Z,51.26
2022-08-12T12:30:19.552Z,51.35
2022-08-12T12:32:29.387Z,52.21
2022-08-12T12:35:14.893Z,49.87
2022-08-12T12:37:17.475Z,48.44
2022-08-12T12:39:55.633Z,48.17
2022-08-12T12:42:44.035Z,48.35
2022-08-12T12:44:41.875Z,47.42
2022-08-12T12:47:02.157Z,46.90
2022-08-12T12:49:28.521Z,47.74
2022-08-12T12:52:18.383Z,49.20
2022-08-12T12:54:24.478Z,49.16
2022-08-12T12:56:47.732Z,48.91
2022-08-12T12:59:54.839Z,49.30
2022-08-12T13:01:42.081Z,47.58
2022-08-12T13:04:06.962Z,47.82
2022-08-12T13:06:34.317Z,48.08
2022-08-12T13:09:02.439Z,47.91
2022-08-12T13:11:26.092Z,45.02
2022-08-12T13:14:08.760Z,45.49
2022-08-12T13:16:20.692Z,44.13
2022-08-12T13:18:45.326Z,44.08
2022-08-12T13:21:15.643Z,44.29
2022-08-12T13:23:38.073Z,45.04
2022-08-12T13:26:04.527Z,45.13
2022-08-12T13:28:30.961Z,45.11
2022-08-12T13:30:57.337Z,44.16
2022-08-12T13:33:23.791Z,45.14
2022-08-12T13:36:05.021Z,44.63
2022-08-12T13:38:26.650Z,44.48
2022-08-12T13:40:42.960Z,43.89
2022-08-12T13:43:09.324Z,43.74
2022-08-12T13:45:36.705Z,44.59
2022-08-12T13:48:02.211Z,44.22
2022-08-12T13:50:28.441Z,45.43
2022-08-12T13:52:54.802Z,44.85
2022-08-12T13:55:21.188Z,44.97
2022-08-12T13:57:47.652Z,44.87
2022-08-12T14:00:14.022Z,44.97
2022-08-12T14:02:40.654Z,45.32
2022-08-12T14:05:37.470Z,44.79
2022-08-12T14:07:48.845Z,43.92
2022-08-12T14:09:59.878Z,44.38
2022-08-12T14:12:26.246Z,44.55
2022-08-12T14:14:52.615Z,45.59
2022-08-12T14:17:19.857Z,46.63
2022-08-12T14:19:52.962Z,47.68
2022-08-12T14:22:11.798Z,48.64
2022-08-12T14:24:40.913Z,48.01
2022-08-12T14:27:09.047Z,49.07
2022-08-12T14:29:38.136Z,48.02
2022-08-12T14:31:57.399Z,48.39
2022-08-12T14:34:28.231Z,47.42
2022-08-12T14:36:50.272Z,47.94
2022-08-12T14:39:16.743Z,49.06
2022-08-12T14:41:48.405Z,49.61
2022-08-12T14:44:57.540Z,49.28
2022-08-12T14:46:35.830Z,49.21
2022-08-12T14:50:01.341Z,48.03
2022-08-12T14:52:54.092Z,49.00
2022-08-12T14:54:49.923Z,48.94
2022-08-12T14:58:51.843Z,48.35
2022-08-12T15:01:14.188Z,49.12
2022-08-12T15:03:52.790Z,48.28
2022-08-12T15:06:39.094Z,48.49
2022-08-12T15:08:33.491Z,49.49
2022-08-12T15:10:59.851Z,48.53
2022-08-12T15:13:26.254Z,48.66
2022-08-12T15:15:52.615Z,47.76
2022-08-12T15:18:21.645Z,48.61
2022-08-12T15:20:45.446Z,49.49
2022-08-12T15:23:17.705Z,49.90
2022-08-12T15:25:39.945Z,48.34
2022-08-12T15:28:06.022Z,49.01
2022-08-12T15:30:30.974Z,48.60
2022-08-12T15:32:57.424Z,49.42
2022-08-12T15:35:23.839Z,47.46
2022-08-12T15:38:09.387Z,46.60
2022-08-12T15:40:16.674Z,48.64
2022-08-12T15:42:46.771Z,47.60
2022-08-12T15:45:09.469Z,47.01
2022-08-12T15:47:49.626Z,48.11
2022-08-12T15:50:02.256Z,48.40
2022-08-12T15:52:28.670Z,46.53
2022-08-12T15:54:54.980Z,45.78
2022-08-12T15:57:21.429Z,46.84
2022-08-12T16:00:00.541Z,47.72
2022-08-12T16:02:14.296Z,47.44
2022-08-12T16:04:40.678Z,48.11
2022-08-12T16:07:10.001Z,46.58
2022-08-12T16:09:56.331Z,46.20
2022-08-12T16:11:59.815Z,46.25
2022-08-12T16:14:26.188Z,46.35
2022-08-12T16:16:52.550Z,48.06
2022-08-12T16:20:03.198Z,47.28
2022-08-12T16:21:52.164Z,46.93
2022-08-12T16:24:11.730Z,47.78
2022-08-12T16:26:38.117Z,48.79
2022-08-12T16:29:15.124Z,49.67
2022-08-12T16:31:30.979Z,49.67
2022-08-12T16:34:00.484Z,50.09
2022-08-12T16:36:23.709Z,50.20
2022-08-12T16:38:50.072Z,50.82
2022-08-12T16:41:16.437Z,50.16
2022-08-12T16:43:42.859Z,50.71
2022-08-12T16:46:31.492Z,50.74
2022-08-12T16:48:36.228Z,51.50
2022-08-12T16:51:02.035Z,51.33
2022-08-12T16:53:30.663Z,51.64
2022-08-12T16:55:54.777Z,51.56
2022-08-12T16:58:28.224Z,51.30
2022-08-12T17:00:48.167Z,51.35
2022-08-12T17:03:14.027Z,51.24
2022-08-12T17:05:40.586Z,51.29
2022-08-12T17:08:06.906Z,51.48
2022-08-12T17:10:35.497Z,51.49
2022-08-12T17:12:59.725Z,51.35
2022-08-12T17:15:57.838Z,51.50
2022-08-12T17:18:39.197Z,51.91
2022-08-12T17:20:35.216Z,51.52
2022-08-12T17:22:45.231Z,51.84
2022-08-12T17:25:14.729Z,52.09
2022-08-12T17:27:37.974Z,51.65
2022-08-12T17:30:05.619Z,52.44
2022-08-12T17:32:30.727Z,52.67
2022-08-12T17:34:57.212Z,52.94
2022-08-12T17:37:23.645Z,52.52
2022-08-12T17:40:10.088Z,52.75
2022-08-12T17:42:32.865Z,53.10
2022-08-12T17:44:42.877Z,53.34
2022-08-12T17:47:09.226Z,53.42
2022-08-12T17:50:02.076Z,53.99
2022-08-12T17:52:03.146Z,53.55
2022-08-12T17:54:28.362Z,53.24
2022-08-12T17:56:54.797Z,53.38
2022-08-12T17:59:48.249Z,53.60
2022-08-12T18:01:47.653Z,53.43
2022-08-12T18:04:21.979Z,53.71
2022-08-12T18:06:40.378Z,54.04
2022-08-12T18:09:08.921Z,54.14
2022-08-12T18:12:03.278Z,54.54
2022-08-12T18:13:59.615Z,54.45
2022-08-12T18:16:26.033Z,54.41
2022-08-12T18:18:59.653Z,54.72
2022-08-12T18:21:18.824Z,55.03
2022-08-12T18:23:50.900Z,55.06
2022-08-12T18:26:15.970Z,55.33
2022-08-12T18:28:38.054Z,55.55
2022-08-12T18:31:04.517Z,55.51
2022-08-12T18:33:30.889Z,55.19
2022-08-12T18:35:58.413Z,55.34
2022-08-12T18:38:24.541Z,55.35
2022-08-12T18:40:50.035Z,55.91
2022-08-12T18:43:16.420Z,56.03
2022-08-12T18:45:47.331Z,55.66
2022-08-12T18:48:09.164Z,55.71
2022-08-12T18:50:49.185Z,55.96
2022-08-12T18:53:01.885Z,55.94
2022-08-12T18:55:37.404Z,56.16
2022-08-12T18:58:08.321Z,56.50
2022-08-12T19:00:22.056Z,56.83
2022-08-12T19:02:47.856Z,57.00
2022-08-12T19:05:13.829Z,57.50
2022-08-12T19:07:49.785Z,57.97
2022-08-12T19:10:06.664Z,58.53
2022-08-12T19:12:33.048Z,58.92
2022-08-12T19:15:04.180Z,59.17
2022-08-12T19:17:25.916Z,59.21
2022-08-12T19:19:52.295Z,59.44
2022-08-12T19:22:29.038Z,59.78
2022-08-12T19:24:45.162Z,60.15
2022-08-12T19:27:11.587Z,60.40
2022-08-12T19:29:43.906Z,60.70
2022-08-12T19:32:04.363Z,60.73
2022-08-12T19:35:32.957Z,60.84
2022-08-12T19:36:57.223Z,60.84
2022-08-12T19:39:25.303Z,60.94
2022-08-12T19:42:00.687Z,60.88
2022-08-12T19:44:18.621Z,60.52
2022-08-12T19:46:42.817Z,59.93
2022-08-12T19:49:09.197Z,59.57
2022-08-12T19:51:35.731Z,59.43
2022-08-12T19:54:01.965Z,59.43
2022-08-12T19:56:28.356Z,58.78
2022-08-12T19:58:54.808Z,58.69
2022-08-12T20:01:21.248Z,58.53
2022-08-12T20:03:47.743Z,58.42
2022-08-12T20:06:21.908Z,58.10
2022-08-12T20:08:40.422Z,58.27
2022-08-12T20:12:08.789Z,58.27
2022-08-12T20:13:37.623Z,58.51
2022-08-12T20:15:59.996Z,58.42
2022-08-12T20:18:53.307Z,58.73
2022-08-12T20:20:52.303Z,58.69
2022-08-12T20:23:18.736Z,58.78
2022-08-12T20:25:53.495Z,59.01
2022-08-12T20:28:11.497Z,59.13
2022-08-12T20:30:53.415Z,59.10
2022-08-12T20:33:04.252Z,59.39
2022-08-12T20:36:06.002Z,59.09
2022-08-12T20:38:07.325Z,59.01
2022-08-12T20:40:23.406Z,59.21
2022-08-12T20:42:50.521Z,59.22
2022-08-12T20:45:16.124Z,59.49
2022-08-12T20:47:46.885Z,59.34
2022-08-12T20:50:08.932Z,59.35
2022-08-12T20:52:35.420Z,59.67
2022-08-12T20:55:01.852Z,59.77
2022-08-12T20:57:37.494Z,59.60
2022-08-12T20:59:54.615Z,59.51
2022-08-12T21:02:24.392Z,59.50
2022-08-12T21:04:47.381Z,59.89
2022-08-12T21:07:14.432Z,60.07
2022-08-12T21:09:40.634Z,60.15
2022-08-12T21:12:06.711Z,60.60
2022-08-12T21:14:39.840Z,60.72
2022-08-12T21:16:59.463Z,60.90
2022-08-12T21:19:25.837Z,61.35
2022-08-12T21:21:52.199Z,61.58
2022-08-12T21:24:18.639Z,61.58
2022-08-12T21:26:53.233Z,61.64
2022-08-12T21:29:11.402Z,62.08
2022-08-12T21:32:36.668Z,62.47
2022-08-12T21:34:07.280Z,62.86
2022-08-12T21:36:32.241Z,62.94
2022-08-12T21:38:57.136Z,63.33
2022-08-12T21:41:23.519Z,63.29
2022-08-12T21:43:50.000Z,63.52
2022-08-12T21:46:34.751Z,63.53
2022-08-12T21:48:42.764Z,63.86
2022-08-12T21:51:23.200Z,63.75
2022-08-12T21:54:07.583Z,63.85
2022-08-12T21:56:01.909Z,63.97
2022-08-12T21:58:28.274Z,64.25
2022-08-12T22:00:54.749Z,63.94
2022-08-12T22:04:02.781Z,64.12
2022-08-12T22:05:47.518Z,64.07
2022-08-12T22:08:13.907Z,63.85
2022-08-12T22:10:40.273Z,63.51
2022-08-12T22:13:06.642Z,63.27
2022-08-12T22:15:33.116Z,63.05
2022-08-12T22:17:59.499Z,62.85
2022-08-12T22:20:29.303Z,62.54
2022-08-12T22:22:56.873Z,62.32
2022-08-12T22:25:20.283Z,61.78
2022-08-12T22:27:45.056Z,61.66
2022-08-12T22:30:16.719Z,61.17
2022-08-12T22:32:37.778Z,60.82
2022-08-12T22:35:04.174Z,60.60
2022-08-12T22:37:30.606Z,60.29
2022-08-12T22:39:57.087Z,59.92
2022-08-12T22:42:23.427Z,59.59
2022-08-12T22:44:52.725Z,59.82
2022-08-12T22:47:16.238Z,60.15
2022-08-12T22:49:53.072Z,60.05
2022-08-12T22:52:09.029Z,60.06
2022-08-12T22:54:37.565Z,60.23
2022-08-12T22:57:01.865Z,59.96
2022-08-12T22:59:28.291Z,60.37
2022-08-12T23:02:01.988Z,60.66
2022-08-12T23:04:27.652Z,60.72
2022-08-12T23:06:47.435Z,61.38
2022-08-12T23:09:13.824Z,61.26
2022-08-12T23:11:40.999Z,60.63
2022-08-12T23:14:06.658Z,60.64
2022-08-12T23:16:33.519Z,60.88
2022-08-12T23:18:59.678Z,61.13
2022-08-12T23:21:25.817Z,61.29
2022-08-12T23:24:09.450Z,61.52
2022-08-12T23:26:18.654Z,61.50
2022-08-12T23:28:45.010Z,62.06
2022-08-12T23:31:11.393Z,61.78
2022-08-12T23:34:00.051Z,61.71
2022-08-12T23:36:04.282Z,62.26
2022-08-12T23:38:32.249Z,62.40
2022-08-12T23:40:57.076Z,62.26
2022-08-12T23:43:23.393Z,62.47
2022-08-12T23:46:01.110Z,62.50
2022-08-12T23:48:22.950Z,62.52
2022-08-12T23:50:42.539Z,62.45
2022-08-12T23:53:22.700Z,62.44
2022-08-12T23:55:35.433Z,62.75
2022-08-12T23:58:22.581Z,62.86
